createdAt,value
2019-02-27T08:41:31.482Z,30.05
2019-02-27T08:42:30.805Z,31.17
2019-02-27T08:43:30.555Z,32.47
2019-02-27T08:44:30.410Z,32.99
2019-02-27T08:45:30.330Z,33.28
2019-02-27T08:46:30.176Z,33.49
2019-02-27T08:47:31.181Z,33.89
2019-02-27T08:48:30.185Z,32.27
2019-02-27T08:49:31.935Z,29.98
2019-02-27T08:51:25.419Z,31.40
2019-02-27T08:52:24.887Z,31.31
2019-02-27T08:53:26.899Z,30.61
2019-02-27T08:54:24.863Z,30.12
2019-02-27T08:55:25.008Z,30.44
2019-02-27T08:56:24.970Z,30.46
2019-02-27T08:57:24.977Z,30.77
2019-02-27T08:58:26.687Z,30.67
2019-02-27T08:59:24.986Z,30.48
2019-02-27T09:00:24.904Z,30.30
2019-02-27T09:01:24.895Z,30.70
2019-02-27T09:02:29.250Z,30.11
2019-02-27T09:03:25.914Z,31.63
2019-02-27T09:04:24.888Z,31.33
2019-02-27T09:05:24.947Z,31.55
2019-02-27T09:06:27.269Z,31.95
2019-02-27T09:07:24.870Z,32.27
2019-02-27T09:08:24.835Z,32.18
2019-02-27T09:09:24.856Z,32.59
2019-02-27T09:10:26.714Z,32.60
2019-02-27T09:11:25.801Z,31.90
2019-02-27T09:12:24.766Z,32.21
2019-02-27T09:13:24.664Z,32.42
2019-02-27T09:14:24.750Z,32.43
2019-02-27T09:15:24.727Z,32.23
2019-02-27T09:16:26.119Z,31.73
2019-02-27T09:17:26.919Z,32.65
2019-02-27T09:18:24.746Z,33.26
2019-02-27T09:19:24.709Z,33.07
2019-02-27T09:20:24.723Z,35.17
2019-02-27T09:21:24.909Z,34.57
2019-02-27T09:22:24.691Z,32.95
2019-02-27T09:23:24.575Z,32.46
2019-02-27T09:24:24.717Z,34.08
2019-02-27T09:25:26.491Z,35.48
2019-02-27T09:26:24.639Z,35.28
2019-02-27T09:27:24.490Z,35.55
2019-02-27T09:28:24.463Z,35.04
2019-02-27T09:29:24.670Z,35.83
2019-02-27T09:30:28.854Z,36.02
2019-02-27T09:31:25.594Z,36.51
2019-02-27T09:32:24.447Z,38.12
2019-02-27T09:33:24.577Z,38.48
2019-02-27T09:34:26.888Z,37.46
2019-02-27T09:35:25.150Z,37.65
2019-02-27T09:36:24.634Z,37.54
2019-02-27T09:37:24.484Z,36.10
2019-02-27T09:38:24.919Z,35.19
2019-02-27T09:39:25.048Z,35.19
2019-02-27T09:40:24.477Z,34.88
2019-02-27T09:41:24.890Z,35.08
2019-02-27T09:42:24.479Z,35.57
2019-02-27T09:43:27.326Z,33.45
2019-02-27T09:44:24.443Z,32.35
2019-02-27T09:45:25.488Z,31.16
2019-02-27T09:46:24.913Z,30.15
2019-02-27T09:47:25.760Z,31.86
2019-02-27T09:48:24.373Z,32.78
2019-02-27T09:49:24.442Z,32.67
2019-02-27T09:50:24.405Z,33.07
2019-02-27T09:51:24.361Z,32.06
2019-02-27T09:52:24.937Z,32.45
2019-02-27T09:53:27.400Z,32.24
2019-02-27T09:54:25.317Z,31.26
2019-02-27T09:55:24.163Z,31.34
2019-02-27T09:56:26.097Z,31.34
2019-02-27T09:57:24.294Z,30.54
2019-02-27T09:58:25.876Z,30.44
2019-02-27T09:59:24.257Z,30.24
2019-02-27T10:00:26.620Z,31.14
2019-02-27T10:01:24.272Z,31.13
2019-02-27T10:02:24.329Z,31.23
2019-02-27T10:03:24.224Z,30.93
2019-02-27T10:04:25.938Z,31.33
2019-02-27T10:05:24.236Z,31.63
2019-02-27T10:06:24.207Z,32.02
2019-02-27T10:07:24.227Z,32.02
2019-02-27T10:08:25.215Z,32.21
2019-02-27T10:09:24.167Z,32.12
2019-02-27T10:10:24.166Z,32.52
2019-02-27T10:11:24.141Z,32.42
2019-02-27T10:12:27.123Z,31.82
2019-02-27T10:13:24.116Z,30.31
2019-02-27T10:14:24.141Z,30.22
2019-02-27T10:15:25.297Z,29.02
2019-02-27T10:16:24.662Z,27.91
2019-02-27T10:17:24.110Z,28.53
2019-02-27T10:18:24.066Z,27.83
2019-02-27T10:19:27.000Z,28.14
2019-02-27T10:20:24.091Z,28.25
2019-02-27T10:21:24.599Z,29.47
2019-02-27T10:22:24.637Z,30.48
2019-02-27T10:23:25.070Z,31.49
2019-02-27T10:24:24.006Z,30.07
2019-02-27T10:25:23.992Z,29.07
2019-02-27T10:26:24.918Z,29.17
2019-02-27T10:27:25.502Z,30.99
2019-02-27T10:28:23.972Z,30.38
2019-02-27T10:29:23.960Z,29.27
2019-02-27T10:30:23.953Z,31.00
2019-02-27T10:31:25.981Z,30.19
2019-02-27T10:32:24.490Z,29.99
2019-02-27T10:33:25.789Z,29.98
2019-02-27T10:34:23.896Z,30.19
2019-02-27T10:35:23.871Z,29.39
2019-02-27T10:36:25.019Z,27.78
2019-02-27T10:37:24.025Z,27.68
2019-02-27T10:38:26.155Z,28.38
2019-02-27T10:39:23.829Z,30.31
2019-02-27T10:40:23.830Z,29.61
2019-02-27T10:41:24.408Z,28.30
2019-02-27T10:42:23.786Z,27.80
2019-02-27T10:43:23.630Z,27.30
2019-02-27T10:44:23.773Z,27.20
2019-02-27T10:45:23.763Z,27.22
2019-02-27T10:46:24.350Z,27.83
2019-02-27T10:47:23.864Z,27.33
2019-02-27T10:48:23.723Z,27.83
2019-02-27T10:49:23.732Z,27.43
2019-02-27T10:50:23.689Z,28.05
2019-02-27T10:51:23.682Z,31.07
2019-02-27T10:52:24.417Z,30.77
2019-02-27T10:53:27.115Z,32.08
2019-02-27T10:54:23.691Z,32.47
2019-02-27T10:55:23.636Z,34.19
2019-02-27T10:56:24.235Z,34.47
2019-02-27T10:57:23.632Z,33.95
2019-02-27T10:58:24.660Z,33.44
2019-02-27T10:59:23.628Z,33.92
2019-02-27T11:00:25.227Z,33.80
2019-02-27T11:01:23.590Z,34.39
2019-02-27T11:02:23.744Z,35.38
2019-02-27T11:03:26.408Z,35.26
2019-02-27T11:04:23.582Z,29.93
2019-02-27T11:05:23.549Z,26.72
2019-02-27T11:06:23.499Z,25.53
2019-02-27T11:07:23.550Z,25.96
2019-02-27T11:08:23.567Z,26.99
2019-02-27T11:09:23.491Z,27.31
2019-02-27T11:10:23.517Z,28.14
2019-02-27T11:11:23.478Z,29.06
2019-02-27T11:12:23.513Z,30.36
2019-02-27T11:13:23.482Z,32.69
2019-02-27T11:14:23.502Z,32.05
2019-02-27T11:15:23.434Z,32.46
2019-02-27T11:16:23.446Z,32.56
2019-02-27T11:17:23.371Z,33.95
2019-02-27T11:18:23.394Z,34.64
2019-02-27T11:19:23.369Z,35.23
2019-02-27T11:20:24.702Z,34.51
2019-02-27T11:21:23.338Z,34.69
2019-02-27T11:22:23.517Z,33.79
2019-02-27T11:23:23.363Z,34.27
2019-02-27T11:24:24.770Z,33.45
2019-02-27T11:25:23.295Z,33.65
2019-02-27T11:26:23.341Z,33.74
2019-02-27T11:27:23.318Z,34.24
2019-02-27T11:28:23.341Z,34.22
2019-02-27T11:29:23.880Z,33.71
2019-02-27T11:30:23.283Z,33.71
2019-02-27T11:31:23.267Z,33.89
2019-02-27T11:32:24.016Z,33.99
2019-02-27T11:33:25.859Z,32.87
2019-02-27T11:34:23.302Z,33.76
2019-02-27T11:35:25.253Z,33.86
2019-02-27T11:36:23.249Z,33.76
2019-02-27T11:37:23.227Z,34.05
2019-02-27T11:38:24.873Z,33.64
2019-02-27T11:39:23.030Z,33.62
2019-02-27T11:40:23.293Z,33.73
2019-02-27T11:41:23.160Z,33.03
2019-02-27T11:42:23.395Z,33.21
2019-02-27T11:43:22.973Z,32.81
2019-02-27T11:44:23.112Z,33.20
2019-02-27T11:45:24.611Z,31.49
2019-02-27T11:46:23.126Z,29.10
2019-02-27T11:47:23.126Z,28.09
2019-02-27T11:48:23.491Z,26.89
2019-02-27T11:49:22.894Z,26.29
2019-02-27T11:50:23.039Z,25.51
2019-02-27T11:51:22.997Z,26.10
2019-02-27T11:52:27.845Z,26.72
2019-02-27T11:53:23.969Z,25.92
2019-02-27T11:54:22.839Z,24.82
2019-02-27T11:55:24.471Z,25.92
2019-02-27T11:56:22.964Z,25.62
2019-02-27T11:57:22.997Z,25.32
2019-02-27T11:58:22.932Z,25.53
2019-02-27T11:59:22.796Z,26.14
2019-02-27T12:00:22.939Z,26.92
2019-02-27T12:01:22.910Z,27.82
2019-02-27T12:02:28.757Z,27.51
2019-02-27T12:03:23.883Z,27.61
2019-02-27T12:04:22.878Z,27.59
2019-02-27T12:05:22.864Z,26.39
2019-02-27T12:06:22.853Z,25.59
2019-02-27T12:07:22.885Z,26.37
2019-02-27T12:08:25.753Z,24.47
2019-02-27T12:09:22.782Z,23.07
2019-02-27T12:10:22.795Z,23.57
2019-02-27T12:11:22.800Z,23.56
2019-02-27T12:12:24.130Z,23.16
2019-02-27T12:13:22.856Z,23.56
2019-02-27T12:14:22.774Z,23.46
2019-02-27T12:15:22.798Z,23.37
2019-02-27T12:16:22.791Z,23.07
2019-02-27T12:17:23.292Z,23.77
2019-02-27T12:18:23.639Z,23.77
2019-02-27T12:19:22.697Z,23.77
2019-02-27T12:20:22.664Z,24.67
2019-02-27T12:21:25.462Z,25.47
2019-02-27T12:22:22.514Z,27.07
2019-02-27T12:23:22.697Z,27.75
2019-02-27T12:24:22.673Z,29.95
2019-02-27T12:25:26.748Z,28.24
2019-02-27T12:26:23.598Z,28.53
2019-02-27T12:27:45.193Z,27.81
2019-02-27T12:28:23.675Z,27.50
2019-02-27T12:29:24.120Z,26.09
2019-02-27T12:30:22.634Z,26.88
2019-02-27T12:31:22.601Z,26.38
2019-02-27T12:32:22.604Z,24.98
2019-02-27T12:33:22.429Z,24.19
2019-02-27T12:34:22.552Z,24.28
2019-02-27T12:35:22.502Z,24.18
2019-02-27T12:36:22.538Z,24.58
2019-02-27T12:37:28.099Z,23.18
2019-02-27T12:38:23.386Z,22.19
2019-02-27T12:39:22.462Z,23.08
2019-02-27T12:40:24.999Z,25.27
2019-02-27T12:41:22.455Z,25.97
2019-02-27T12:42:22.463Z,26.57
2019-02-27T12:43:22.472Z,26.76
2019-02-27T12:44:22.446Z,26.57
2019-02-27T12:45:22.485Z,27.17
2019-02-27T12:46:22.399Z,27.17
2019-02-27T12:47:22.388Z,26.97
2019-02-27T12:48:22.371Z,27.67
2019-02-27T12:49:22.385Z,27.37
2019-02-27T12:50:22.366Z,27.58
2019-02-27T12:51:22.347Z,27.18
2019-02-27T12:52:22.771Z,27.69
2019-02-27T12:53:22.305Z,27.49
2019-02-27T12:54:22.326Z,27.99
2019-02-27T12:55:22.332Z,27.69
2019-02-27T12:56:22.277Z,28.09
2019-02-27T12:57:22.282Z,28.58
2019-02-27T12:58:24.398Z,28.99
2019-02-27T12:59:22.107Z,28.49
2019-02-27T13:00:22.262Z,29.10
2019-02-27T13:01:22.276Z,28.80
2019-02-27T13:02:32.451Z,28.90
2019-02-27T13:03:23.198Z,28.90
2019-02-27T13:04:22.069Z,29.69
2019-02-27T13:05:26.450Z,29.80
2019-02-27T13:06:23.220Z,29.91
2019-02-27T13:07:22.206Z,29.80
2019-02-27T13:08:22.157Z,29.91
2019-02-27T13:09:24.514Z,30.71
2019-02-27T13:10:22.149Z,30.11
2019-02-27T13:11:22.342Z,30.51
2019-02-27T13:12:22.019Z,29.91
2019-02-27T13:13:23.316Z,30.80
2019-02-27T13:14:22.100Z,31.40
2019-02-27T13:15:22.085Z,31.70
2019-02-27T13:16:22.061Z,31.51
2019-02-27T13:17:22.279Z,31.02
2019-02-27T13:18:22.091Z,31.32
2019-02-27T13:19:22.056Z,31.42
2019-02-27T13:20:22.039Z,32.02
2019-02-27T13:21:22.042Z,32.12
2019-02-27T13:22:21.990Z,32.32
2019-02-27T13:23:21.851Z,32.22
2019-02-27T13:24:22.007Z,32.02
2019-02-27T13:25:24.097Z,32.32
2019-02-27T13:26:21.966Z,31.42
2019-02-27T13:27:21.936Z,32.12
2019-02-27T13:28:21.919Z,33.12
2019-02-27T13:29:21.959Z,32.32
2019-02-27T13:30:21.892Z,33.01
2019-02-27T13:31:21.906Z,33.01
2019-02-27T13:32:26.383Z,32.93
2019-02-27T13:33:22.889Z,32.73
2019-02-27T13:34:21.905Z,33.13
2019-02-27T13:35:22.961Z,32.93
2019-02-27T13:36:21.862Z,32.93
2019-02-27T13:37:21.827Z,33.13
2019-02-27T13:38:21.682Z,33.63
2019-02-27T13:39:25.417Z,32.83
2019-02-27T13:40:21.667Z,33.33
2019-02-27T13:41:23.630Z,33.33
2019-02-27T13:42:21.755Z,32.73
2019-02-27T13:43:24.393Z,33.43
2019-02-27T13:44:23.129Z,32.85
2019-02-27T13:45:21.747Z,33.63
2019-02-27T13:46:22.698Z,33.15
2019-02-27T13:47:21.577Z,33.75
2019-02-27T13:48:21.721Z,33.54
2019-02-27T13:49:21.679Z,33.25
2019-02-27T13:50:24.421Z,33.65
2019-02-27T13:51:21.719Z,33.25
2019-02-27T13:52:21.686Z,33.54
2019-02-27T13:53:25.806Z,34.34
2019-02-27T13:54:22.630Z,34.44
2019-02-27T13:55:21.630Z,34.34
2019-02-27T13:56:21.666Z,34.64
2019-02-27T13:57:24.991Z,34.75
2019-02-27T13:58:21.613Z,34.55
2019-02-27T13:59:21.583Z,35.35
2019-02-27T14:00:21.691Z,34.94
2019-02-27T14:01:21.548Z,34.56
2019-02-27T14:02:21.590Z,34.56
2019-02-27T14:03:21.415Z,34.66
2019-02-27T14:04:22.669Z,34.86
2019-02-27T14:05:21.645Z,34.96
2019-02-27T14:06:21.551Z,35.06
2019-02-27T14:07:23.477Z,34.76
2019-02-27T14:08:21.384Z,34.76
2019-02-27T14:09:21.451Z,35.16
2019-02-27T14:10:21.485Z,34.78
2019-02-27T14:11:21.448Z,34.96
2019-02-27T14:12:21.427Z,35.36
2019-02-27T14:13:21.272Z,34.88
2019-02-27T14:14:21.431Z,35.16
2019-02-27T14:15:21.449Z,35.26
2019-02-27T14:16:22.385Z,34.96
2019-02-27T14:17:21.384Z,35.36
2019-02-27T14:18:21.343Z,35.26
2019-02-27T14:19:23.905Z,34.78
2019-02-27T14:20:21.385Z,34.56
2019-02-27T14:21:21.333Z,35.78
2019-02-27T14:22:21.324Z,35.68
2019-02-27T14:23:21.309Z,35.48
2019-02-27T14:24:21.385Z,35.38
2019-02-27T14:25:21.457Z,35.38
2019-02-27T14:26:21.258Z,35.58
2019-02-27T14:27:21.247Z,35.28
2019-02-27T14:28:21.685Z,35.38
2019-02-27T14:29:21.225Z,35.38
2019-02-27T14:30:21.220Z,35.88
2019-02-27T14:31:21.779Z,35.78
2019-02-27T14:32:21.225Z,35.68
2019-02-27T14:33:21.051Z,36.58
2019-02-27T14:34:21.174Z,36.18
2019-02-27T14:35:21.751Z,36.47
2019-02-27T14:36:21.164Z,36.28
2019-02-27T14:37:21.703Z,36.58
2019-02-27T14:38:22.031Z,35.88
2019-02-27T14:39:21.136Z,36.08
2019-02-27T14:40:21.107Z,35.88
2019-02-27T14:41:21.127Z,36.98
2019-02-27T14:42:21.340Z,35.78
2019-02-27T14:43:21.096Z,35.58
2019-02-27T14:44:21.049Z,35.88
2019-02-27T14:45:21.079Z,34.88
2019-02-27T14:46:21.612Z,35.58
2019-02-27T14:47:21.068Z,34.88
2019-02-27T14:48:21.577Z,34.58
2019-02-27T14:49:20.983Z,34.58
2019-02-27T14:50:21.012Z,34.48
2019-02-27T14:51:21.014Z,34.59
2019-02-27T14:52:21.044Z,35.10
2019-02-27T14:53:20.963Z,35.88
2019-02-27T14:54:20.957Z,35.49
2019-02-27T14:55:20.825Z,35.30
2019-02-27T14:56:20.813Z,35.38
2019-02-27T14:57:20.794Z,35.08
2019-02-27T14:58:24.068Z,34.58
2019-02-27T14:59:20.767Z,34.78
2019-02-27T15:00:20.747Z,34.68
2019-02-27T15:01:20.873Z,35.58
2019-02-27T15:02:22.425Z,34.89
2019-02-27T15:03:20.860Z,34.00
2019-02-27T15:04:20.751Z,32.78
2019-02-27T15:05:20.841Z,30.99
2019-02-27T15:06:20.688Z,29.88
2019-02-27T15:07:22.256Z,29.39
2019-02-27T15:08:20.806Z,29.49
2019-02-27T15:09:20.819Z,27.89
2019-02-27T15:10:20.892Z,28.11
2019-02-27T15:11:21.770Z,26.81
2019-02-27T15:12:20.816Z,27.92
2019-02-27T15:13:20.766Z,27.52
2019-02-27T15:14:22.269Z,27.52
2019-02-27T15:15:20.731Z,27.83
2019-02-27T15:16:21.892Z,28.03
2019-02-27T15:17:20.950Z,27.62
